sensor_id;sensor_type;location;lat;lon;timestamp;P1;durP1;ratioP1;P2;durP2;ratioP2
47762;SDS011;33526;42.690;23.322;2022-08-01T00:00:25;3.72;;;2.70;;
47762;SDS011;33526;42.690;23.322;2022-08-01T00:02:51;5.43;;;2.70;;
47762;SDS011;33526;42.690;23.322;2022-08-01T00:05:16;3.28;;;2.53;;
47762;SDS011;33526;42.690;23.322;2022-08-01T00:07:42;4.35;;;2.42;;
47762;SDS011;33526;42.690;23.322;2022-08-01T00:10:08;3.00;;;2.50;;
47762;SDS011;33526;42.690;23.322;2022-08-01T00:12:36;4.95;;;2.65;;
47762;SDS011;33526;42.690;23.322;2022-08-01T00:15:03;2.42;;;2.20;;
47762;SDS011;33526;42.690;23.322;2022-08-01T00:17:30;6.07;;;2.60;;
47762;SDS011;33526;42.690;23.322;2022-08-01T00:19:56;5.47;;;2.88;;
47762;SDS011;33526;42.690;23.322;2022-08-01T00:22:21;4.15;;;2.83;;
47762;SDS011;33526;42.690;23.322;2022-08-01T00:24:47;3.95;;;3.00;;
47762;SDS011;33526;42.690;23.322;2022-08-01T00:27:12;3.72;;;3.30;;
47762;SDS011;33526;42.690;23.322;2022-08-01T00:29:38;4.30;;;3.90;;
47762;SDS011;33526;42.690;23.322;2022-08-01T00:32:03;5.95;;;4.85;;
47762;SDS011;33526;42.690;23.322;2022-08-01T00:34:29;5.95;;;5.20;;
47762;SDS011;33526;42.690;23.322;2022-08-01T00:36:55;6.18;;;5.57;;
47762;SDS011;33526;42.690;23.322;2022-08-01T00:39:20;7.45;;;5.78;;
47762;SDS011;33526;42.690;23.322;2022-08-01T00:41:45;9.60;;;6.32;;
47762;SDS011;33526;42.690;23.322;2022-08-01T00:44:11;6.25;;;5.72;;
47762;SDS011;33526;42.690;23.322;2022-08-01T00:46:36;6.85;;;5.80;;
47762;SDS011;33526;42.690;23.322;2022-08-01T00:49:02;6.55;;;5.95;;
47762;SDS011;33526;42.690;23.322;2022-08-01T00:51:28;6.55;;;5.95;;
47762;SDS011;33526;42.690;23.322;2022-08-01T00:53:53;8.73;;;6.35;;
47762;SDS011;33526;42.690;23.322;2022-08-01T00:56:20;6.88;;;5.75;;
47762;SDS011;33526;42.690;23.322;2022-08-01T00:58:48;5.82;;;5.22;;
47762;SDS011;33526;42.690;23.322;2022-08-01T01:01:14;13.23;;;5.30;;
47762;SDS011;33526;42.690;23.322;2022-08-01T01:03:39;5.15;;;4.60;;
47762;SDS011;33526;42.690;23.322;2022-08-01T01:08:33;5.85;;;4.65;;
47762;SDS011;33526;42.690;23.322;2022-08-01T01:11:08;6.82;;;5.05;;
47762;SDS011;33526;42.690;23.322;2022-08-01T01:13:41;5.35;;;4.85;;
47762;SDS011;33526;42.690;23.322;2022-08-01T01:16:15;7.10;;;4.50;;
47762;SDS011;33526;42.690;23.322;2022-08-01T01:18:51;6.40;;;4.78;;
47762;SDS011;33526;42.690;23.322;2022-08-01T01:26:58;6.07;;;4.43;;
47762;SDS011;33526;42.690;23.322;2022-08-01T01:29:32;4.53;;;4.13;;
47762;SDS011;33526;42.690;23.322;2022-08-01T01:32:35;7.60;;;4.45;;
47762;SDS011;33526;42.690;23.322;2022-08-01T01:35:14;6.07;;;4.50;;
47762;SDS011;33526;42.690;23.322;2022-08-01T01:37:44;6.13;;;4.10;;
47762;SDS011;33526;42.690;23.322;2022-08-01T01:40:13;4.22;;;3.60;;
47762;SDS011;33526;42.690;23.322;2022-08-01T01:42:40;7.82;;;4.15;;
47762;SDS011;33526;42.690;23.322;2022-08-01T01:45:07;6.03;;;3.70;;
47762;SDS011;33526;42.690;23.322;2022-08-01T01:47:34;6.70;;;3.37;;
47762;SDS011;33526;42.690;23.322;2022-08-01T01:50:01;7.88;;;3.45;;
47762;SDS011;33526;42.690;23.322;2022-08-01T01:52:28;7.05;;;2.70;;
47762;SDS011;33526;42.690;23.322;2022-08-01T01:54:57;5.32;;;2.63;;
47762;SDS011;33526;42.690;23.322;2022-08-01T01:57:24;4.13;;;2.70;;
47762;SDS011;33526;42.690;23.322;2022-08-01T01:59:52;2.78;;;2.13;;
47762;SDS011;33526;42.690;23.322;2022-08-01T02:02:19;2.90;;;2.22;;
47762;SDS011;33526;42.690;23.322;2022-08-01T02:04:49;3.72;;;2.53;;
47762;SDS011;33526;42.690;23.322;2022-08-01T02:07:22;2.78;;;2.50;;
47762;SDS011;33526;42.690;23.322;2022-08-01T02:09:50;3.30;;;2.47;;
47762;SDS011;33526;42.690;23.322;2022-08-01T02:12:17;3.75;;;2.13;;
47762;SDS011;33526;42.690;23.322;2022-08-01T02:14:44;3.22;;;2.00;;
47762;SDS011;33526;42.690;23.322;2022-08-01T02:17:12;3.15;;;2.08;;
47762;SDS011;33526;42.690;23.322;2022-08-01T02:19:42;4.45;;;2.10;;
47762;SDS011;33526;42.690;23.322;2022-08-01T02:22:09;4.30;;;2.15;;
47762;SDS011;33526;42.690;23.322;2022-08-01T02:27:15;7.18;;;2.17;;
47762;SDS011;33526;42.690;23.322;2022-08-01T02:29:55;4.13;;;2.60;;
47762;SDS011;33526;42.690;23.322;2022-08-01T02:32:32;4.20;;;2.45;;
47762;SDS011;33526;42.690;23.322;2022-08-01T02:35:05;4.05;;;2.83;;
47762;SDS011;33526;42.690;23.322;2022-08-01T02:37:34;3.58;;;2.45;;
47762;SDS011;33526;42.690;23.322;2022-08-01T02:40:03;3.03;;;2.08;;
47762;SDS011;33526;42.690;23.322;2022-08-01T02:42:30;7.70;;;2.67;;
47762;SDS011;33526;42.690;23.322;2022-08-01T02:44:57;9.20;;;2.28;;
47762;SDS011;33526;42.690;23.322;2022-08-01T02:47:23;6.65;;;2.42;;
47762;SDS011;33526;42.690;23.322;2022-08-01T02:49:53;6.28;;;3.00;;
47762;SDS011;33526;42.690;23.322;2022-08-01T02:52:22;5.95;;;3.30;;
47762;SDS011;33526;42.690;23.322;2022-08-01T02:54:50;6.03;;;3.25;;
47762;SDS011;33526;42.690;23.322;2022-08-01T02:57:18;4.00;;;3.50;;
47762;SDS011;33526;42.690;23.322;2022-08-01T02:59:46;4.82;;;3.47;;
47762;SDS011;33526;42.690;23.322;2022-08-01T03:02:14;5.90;;;3.63;;
47762;SDS011;33526;42.690;23.322;2022-08-01T03:04:40;6.30;;;3.40;;
47762;SDS011;33526;42.690;23.322;2022-08-01T03:09:38;7.57;;;3.22;;
47762;SDS011;33526;42.690;23.322;2022-08-01T03:12:08;5.05;;;2.95;;
47762;SDS011;33526;42.690;23.322;2022-08-01T03:14:38;4.13;;;3.13;;
47762;SDS011;33526;42.690;23.322;2022-08-01T03:17:05;3.67;;;3.30;;
47762;SDS011;33526;42.690;23.322;2022-08-01T03:19:31;3.55;;;3.20;;
47762;SDS011;33526;42.690;23.322;2022-08-01T03:24:25;4.97;;;3.40;;
47762;SDS011;33526;42.690;23.322;2022-08-01T03:26:52;6.68;;;3.65;;
47762;SDS011;33526;42.690;23.322;2022-08-01T03:29:22;8.23;;;3.80;;
47762;SDS011;33526;42.690;23.322;2022-08-01T03:31:49;5.75;;;3.85;;
47762;SDS011;33526;42.690;23.322;2022-08-01T03:34:16;5.45;;;4.25;;
47762;SDS011;33526;42.690;23.322;2022-08-01T03:36:55;4.90;;;3.40;;
47762;SDS011;33526;42.690;23.322;2022-08-01T03:39:28;4.22;;;3.83;;
47762;SDS011;33526;42.690;23.322;2022-08-01T03:41:58;6.00;;;3.80;;
47762;SDS011;33526;42.690;23.322;2022-08-01T03:44:27;5.90;;;3.90;;
47762;SDS011;33526;42.690;23.322;2022-08-01T03:46:58;5.22;;;3.75;;
47762;SDS011;33526;42.690;23.322;2022-08-01T03:49:27;5.03;;;3.50;;
47762;SDS011;33526;42.690;23.322;2022-08-01T03:51:56;6.85;;;3.67;;
47762;SDS011;33526;42.690;23.322;2022-08-01T03:54:24;6.35;;;3.53;;
47762;SDS011;33526;42.690;23.322;2022-08-01T03:56:51;3.92;;;3.22;;
47762;SDS011;33526;42.690;23.322;2022-08-01T03:59:17;7.13;;;4.00;;
47762;SDS011;33526;42.690;23.322;2022-08-01T04:01:45;6.60;;;4.95;;
47762;SDS011;33526;42.690;23.322;2022-08-01T04:06:37;7.07;;;4.80;;
47762;SDS011;33526;42.690;23.322;2022-08-01T04:09:03;5.53;;;4.50;;
47762;SDS011;33526;42.690;23.322;2022-08-01T04:11:29;9.73;;;5.35;;
47762;SDS011;33526;42.690;23.322;2022-08-01T04:13:54;5.53;;;4.38;;
47762;SDS011;33526;42.690;23.322;2022-08-01T04:16:21;11.32;;;4.78;;
47762;SDS011;33526;42.690;23.322;2022-08-01T04:18:47;11.20;;;5.30;;
47762;SDS011;33526;42.690;23.322;2022-08-01T04:21:13;8.32;;;5.38;;
47762;SDS011;33526;42.690;23.322;2022-08-01T04:23:39;6.40;;;5.15;;
47762;SDS011;33526;42.690;23.322;2022-08-01T04:26:08;9.40;;;5.05;;
47762;SDS011;33526;42.690;23.322;2022-08-01T04:28:34;10.40;;;4.97;;
47762;SDS011;33526;42.690;23.322;2022-08-01T04:31:02;8.32;;;5.97;;
47762;SDS011;33526;42.690;23.322;2022-08-01T04:33:30;13.60;;;5.63;;
47762;SDS011;33526;42.690;23.322;2022-08-01T04:35:58;11.60;;;5.97;;
47762;SDS011;33526;42.690;23.322;2022-08-01T04:38:26;12.80;;;5.68;;
47762;SDS011;33526;42.690;23.322;2022-08-01T04:40:55;18.65;;;6.68;;
47762;SDS011;33526;42.690;23.322;2022-08-01T04:43:22;11.85;;;5.78;;
47762;SDS011;33526;42.690;23.322;2022-08-01T04:45:48;12.93;;;6.63;;
47762;SDS011;33526;42.690;23.322;2022-08-01T04:48:16;12.18;;;6.63;;
47762;SDS011;33526;42.690;23.322;2022-08-01T04:50:44;12.50;;;5.70;;
47762;SDS011;33526;42.690;23.322;2022-08-01T04:53:14;13.68;;;6.47;;
47762;SDS011;33526;42.690;23.322;2022-08-01T04:55:42;13.50;;;7.10;;
47762;SDS011;33526;42.690;23.322;2022-08-01T05:00:35;17.27;;;6.72;;
47762;SDS011;33526;42.690;23.322;2022-08-01T05:03:01;18.48;;;6.43;;
47762;SDS011;33526;42.690;23.322;2022-08-01T05:05:27;13.05;;;7.47;;
47762;SDS011;33526;42.690;23.322;2022-08-01T05:07:52;16.05;;;6.47;;
47762;SDS011;33526;42.690;23.322;2022-08-01T05:10:18;19.42;;;6.43;;
47762;SDS011;33526;42.690;23.322;2022-08-01T05:12:43;13.98;;;6.28;;
47762;SDS011;33526;42.690;23.322;2022-08-01T05:15:09;15.20;;;6.25;;
47762;SDS011;33526;42.690;23.322;2022-08-01T05:17:34;9.73;;;5.07;;
47762;SDS011;33526;42.690;23.322;2022-08-01T05:20:00;17.52;;;5.40;;
47762;SDS011;33526;42.690;23.322;2022-08-01T05:22:26;6.67;;;5.30;;
47762;SDS011;33526;42.690;23.322;2022-08-01T05:24:52;10.02;;;4.38;;
47762;SDS011;33526;42.690;23.322;2022-08-01T05:27:17;10.48;;;5.38;;
47762;SDS011;33526;42.690;23.322;2022-08-01T05:29:43;13.38;;;6.57;;
47762;SDS011;33526;42.690;23.322;2022-08-01T05:32:09;16.85;;;5.18;;
47762;SDS011;33526;42.690;23.322;2022-08-01T05:34:34;9.60;;;4.30;;
47762;SDS011;33526;42.690;23.322;2022-08-01T05:37:00;6.32;;;3.67;;
47762;SDS011;33526;42.690;23.322;2022-08-01T05:39:25;8.57;;;4.20;;
47762;SDS011;33526;42.690;23.322;2022-08-01T05:41:51;9.77;;;4.00;;
47762;SDS011;33526;42.690;23.322;2022-08-01T05:44:16;8.75;;;4.78;;
47762;SDS011;33526;42.690;23.322;2022-08-01T05:46:42;8.15;;;4.47;;
47762;SDS011;33526;42.690;23.322;2022-08-01T05:49:08;12.68;;;4.90;;
47762;SDS011;33526;42.690;23.322;2022-08-01T05:51:33;6.10;;;4.07;;
47762;SDS011;33526;42.690;23.322;2022-08-01T05:53:59;9.50;;;4.00;;
47762;SDS011;33526;42.690;23.322;2022-08-01T05:56:24;5.70;;;3.47;;
47762;SDS011;33526;42.690;23.322;2022-08-01T05:58:50;4.72;;;3.72;;
47762;SDS011;33526;42.690;23.322;2022-08-01T06:01:17;8.05;;;3.38;;
47762;SDS011;33526;42.690;23.322;2022-08-01T06:03:43;5.50;;;3.03;;
47762;SDS011;33526;42.690;23.322;2022-08-01T06:06:09;7.88;;;3.63;;
47762;SDS011;33526;42.690;23.322;2022-08-01T06:08:34;5.43;;;3.20;;
47762;SDS011;33526;42.690;23.322;2022-08-01T06:11:00;12.68;;;3.88;;
47762;SDS011;33526;42.690;23.322;2022-08-01T06:13:25;6.40;;;3.00;;
47762;SDS011;33526;42.690;23.322;2022-08-01T06:15:54;5.43;;;3.50;;
47762;SDS011;33526;42.690;23.322;2022-08-01T06:18:19;5.15;;;2.65;;
47762;SDS011;33526;42.690;23.322;2022-08-01T06:20:45;5.55;;;3.00;;
47762;SDS011;33526;42.690;23.322;2022-08-01T06:23:11;7.00;;;3.42;;
47762;SDS011;33526;42.690;23.322;2022-08-01T06:25:38;4.00;;;3.08;;
47762;SDS011;33526;42.690;23.322;2022-08-01T06:28:03;3.25;;;2.50;;
47762;SDS011;33526;42.690;23.322;2022-08-01T06:30:29;2.72;;;2.10;;
47762;SDS011;33526;42.690;23.322;2022-08-01T06:32:54;7.20;;;2.30;;
47762;SDS011;33526;42.690;23.322;2022-08-01T06:35:24;4.43;;;2.72;;
47762;SDS011;33526;42.690;23.322;2022-08-01T06:37:50;3.35;;;2.08;;
47762;SDS011;33526;42.690;23.322;2022-08-01T06:40:16;4.07;;;2.10;;
47762;SDS011;33526;42.690;23.322;2022-08-01T06:42:43;4.68;;;2.10;;
47762;SDS011;33526;42.690;23.322;2022-08-01T06:45:11;6.05;;;2.05;;
47762;SDS011;33526;42.690;23.322;2022-08-01T06:47:38;3.03;;;2.20;;
47762;SDS011;33526;42.690;23.322;2022-08-01T06:50:05;5.00;;;2.45;;
47762;SDS011;33526;42.690;23.322;2022-08-01T06:52:32;6.43;;;2.30;;
47762;SDS011;33526;42.690;23.322;2022-08-01T06:54:58;7.32;;;2.30;;
47762;SDS011;33526;42.690;23.322;2022-08-01T06:57:24;4.32;;;2.50;;
47762;SDS011;33526;42.690;23.322;2022-08-01T06:59:50;4.18;;;2.20;;
47762;SDS011;33526;42.690;23.322;2022-08-01T07:02:15;4.13;;;2.40;;
47762;SDS011;33526;42.690;23.322;2022-08-01T07:04:42;3.75;;;2.17;;
47762;SDS011;33526;42.690;23.322;2022-08-01T07:07:08;8.63;;;2.22;;
47762;SDS011;33526;42.690;23.322;2022-08-01T07:09:33;3.75;;;2.40;;
47762;SDS011;33526;42.690;23.322;2022-08-01T07:12:01;3.30;;;2.13;;
47762;SDS011;33526;42.690;23.322;2022-08-01T07:14:27;4.30;;;2.30;;
47762;SDS011;33526;42.690;23.322;2022-08-01T07:16:53;5.60;;;2.50;;
47762;SDS011;33526;42.690;23.322;2022-08-01T07:19:18;5.57;;;2.30;;
47762;SDS011;33526;42.690;23.322;2022-08-01T07:21:44;3.03;;;2.30;;
47762;SDS011;33526;42.690;23.322;2022-08-01T07:24:10;4.38;;;2.50;;
47762;SDS011;33526;42.690;23.322;2022-08-01T07:26:41;5.07;;;2.25;;
47762;SDS011;33526;42.690;23.322;2022-08-01T07:29:08;4.68;;;2.90;;
47762;SDS011;33526;42.690;23.322;2022-08-01T07:31:33;6.78;;;2.70;;
47762;SDS011;33526;42.690;23.322;2022-08-01T07:33:59;3.00;;;2.38;;
47762;SDS011;33526;42.690;23.322;2022-08-01T07:36:24;3.67;;;2.28;;
47762;SDS011;33526;42.690;23.322;2022-08-01T07:38:50;5.35;;;2.65;;
47762;SDS011;33526;42.690;23.322;2022-08-01T07:41:15;2.42;;;2.03;;
47762;SDS011;33526;42.690;23.322;2022-08-01T07:43:41;6.70;;;2.35;;
47762;SDS011;33526;42.690;23.322;2022-08-01T07:46:06;6.00;;;2.05;;
47762;SDS011;33526;42.690;23.322;2022-08-01T07:48:32;2.58;;;1.77;;
47762;SDS011;33526;42.690;23.322;2022-08-01T07:50:58;2.85;;;2.20;;
47762;SDS011;33526;42.690;23.322;2022-08-01T07:53:24;6.70;;;2.22;;
47762;SDS011;33526;42.690;23.322;2022-08-01T07:55:49;8.75;;;2.75;;
47762;SDS011;33526;42.690;23.322;2022-08-01T07:58:15;3.15;;;2.17;;
47762;SDS011;33526;42.690;23.322;2022-08-01T08:00:41;7.25;;;2.70;;
47762;SDS011;33526;42.690;23.322;2022-08-01T08:03:07;7.63;;;3.10;;
47762;SDS011;33526;42.690;23.322;2022-08-01T08:05:33;9.00;;;2.67;;
47762;SDS011;33526;42.690;23.322;2022-08-01T08:08:00;3.38;;;2.58;;
47762;SDS011;33526;42.690;23.322;2022-08-01T08:10:39;5.28;;;2.13;;
47762;SDS011;33526;42.690;23.322;2022-08-01T08:13:04;3.30;;;2.17;;
47762;SDS011;33526;42.690;23.322;2022-08-01T08:15:30;5.22;;;2.83;;
47762;SDS011;33526;42.690;23.322;2022-08-01T08:17:56;3.28;;;2.47;;
47762;SDS011;33526;42.690;23.322;2022-08-01T08:20:21;6.43;;;2.35;;
47762;SDS011;33526;42.690;23.322;2022-08-01T08:22:52;2.65;;;2.20;;
47762;SDS011;33526;42.690;23.322;2022-08-01T08:25:18;3.20;;;2.43;;
47762;SDS011;33526;42.690;23.322;2022-08-01T08:27:47;2.80;;;2.30;;
47762;SDS011;33526;42.690;23.322;2022-08-01T08:30:13;8.98;;;3.47;;
47762;SDS011;33526;42.690;23.322;2022-08-01T08:32:39;4.20;;;2.40;;
47762;SDS011;33526;42.690;23.322;2022-08-01T08:35:05;5.40;;;2.35;;
47762;SDS011;33526;42.690;23.322;2022-08-01T08:37:31;5.07;;;2.63;;
47762;SDS011;33526;42.690;23.322;2022-08-01T08:39:57;5.05;;;2.40;;
47762;SDS011;33526;42.690;23.322;2022-08-01T08:42:22;2.72;;;2.10;;
47762;SDS011;33526;42.690;23.322;2022-08-01T08:44:48;3.45;;;2.40;;
47762;SDS011;33526;42.690;23.322;2022-08-01T08:47:14;4.38;;;2.50;;
47762;SDS011;33526;42.690;23.322;2022-08-01T08:49:41;5.00;;;2.35;;
47762;SDS011;33526;42.690;23.322;2022-08-01T08:52:08;4.40;;;2.15;;
47762;SDS011;33526;42.690;23.322;2022-08-01T08:54:35;9.20;;;2.88;;
47762;SDS011;33526;42.690;23.322;2022-08-01T08:57:03;8.57;;;3.58;;
47762;SDS011;33526;42.690;23.322;2022-08-01T08:59:29;6.00;;;3.33;;
47762;SDS011;33526;42.690;23.322;2022-08-01T09:01:56;2.83;;;2.33;;
47762;SDS011;33526;42.690;23.322;2022-08-01T09:04:22;4.20;;;2.38;;
47762;SDS011;33526;42.690;23.322;2022-08-01T09:06:48;5.85;;;2.10;;
47762;SDS011;33526;42.690;23.322;2022-08-01T09:09:14;11.05;;;4.25;;
47762;SDS011;33526;42.690;23.322;2022-08-01T09:11:40;3.35;;;2.15;;
47762;SDS011;33526;42.690;23.322;2022-08-01T09:16:36;3.88;;;2.00;;
47762;SDS011;33526;42.690;23.322;2022-08-01T09:19:08;3.55;;;2.30;;
47762;SDS011;33526;42.690;23.322;2022-08-01T09:21:35;2.85;;;1.95;;
47762;SDS011;33526;42.690;23.322;2022-08-01T09:24:01;2.22;;;1.75;;
47762;SDS011;33526;42.690;23.322;2022-08-01T09:26:31;2.80;;;1.92;;
47762;SDS011;33526;42.690;23.322;2022-08-01T09:29:00;5.28;;;1.90;;
47762;SDS011;33526;42.690;23.322;2022-08-01T09:31:28;2.47;;;1.88;;
47762;SDS011;33526;42.690;23.322;2022-08-01T09:34:00;3.72;;;2.08;;
47762;SDS011;33526;42.690;23.322;2022-08-01T09:36:51;3.28;;;2.10;;
47762;SDS011;33526;42.690;23.322;2022-08-01T09:39:24;4.38;;;1.80;;
47762;SDS011;33526;42.690;23.322;2022-08-01T09:41:54;9.00;;;3.40;;
47762;SDS011;33526;42.690;23.322;2022-08-01T09:44:40;4.68;;;2.05;;
47762;SDS011;33526;42.690;23.322;2022-08-01T09:47:08;7.95;;;2.08;;
47762;SDS011;33526;42.690;23.322;2022-08-01T09:49:35;4.55;;;2.38;;
47762;SDS011;33526;42.690;23.322;2022-08-01T09:52:13;3.70;;;2.05;;
47762;SDS011;33526;42.690;23.322;2022-08-01T09:54:39;6.97;;;2.67;;
47762;SDS011;33526;42.690;23.322;2022-08-01T09:57:16;4.63;;;2.20;;
47762;SDS011;33526;42.690;23.322;2022-08-01T09:59:46;6.40;;;2.00;;
47762;SDS011;33526;42.690;23.322;2022-08-01T10:02:14;3.05;;;2.25;;
47762;SDS011;33526;42.690;23.322;2022-08-01T10:04:52;4.13;;;2.20;;
47762;SDS011;33526;42.690;23.322;2022-08-01T10:07:19;2.47;;;1.75;;
47762;SDS011;33526;42.690;23.322;2022-08-01T10:09:45;3.03;;;2.13;;
47762;SDS011;33526;42.690;23.322;2022-08-01T10:12:12;7.45;;;2.55;;
47762;SDS011;33526;42.690;23.322;2022-08-01T10:14:39;5.47;;;2.00;;
47762;SDS011;33526;42.690;23.322;2022-08-01T10:17:07;3.55;;;2.25;;
47762;SDS011;33526;42.690;23.322;2022-08-01T10:19:34;2.78;;;2.30;;
47762;SDS011;33526;42.690;23.322;2022-08-01T10:22:01;4.50;;;2.38;;
47762;SDS011;33526;42.690;23.322;2022-08-01T10:24:30;3.65;;;1.88;;
47762;SDS011;33526;42.690;23.322;2022-08-01T10:26:59;3.80;;;3.30;;
47762;SDS011;33526;42.690;23.322;2022-08-01T10:29:29;3.75;;;2.40;;
47762;SDS011;33526;42.690;23.322;2022-08-01T10:32:06;4.07;;;3.00;;
47762;SDS011;33526;42.690;23.322;2022-08-01T10:34:34;4.80;;;3.33;;
47762;SDS011;33526;42.690;23.322;2022-08-01T10:37:02;3.67;;;2.40;;
47762;SDS011;33526;42.690;23.322;2022-08-01T10:39:28;1.95;;;1.80;;
47762;SDS011;33526;42.690;23.322;2022-08-01T10:41:56;5.82;;;2.85;;
47762;SDS011;33526;42.690;23.322;2022-08-01T10:44:23;4.53;;;2.15;;
47762;SDS011;33526;42.690;23.322;2022-08-01T10:46:50;2.88;;;2.13;;
47762;SDS011;33526;42.690;23.322;2022-08-01T10:49:30;5.78;;;1.92;;
47762;SDS011;33526;42.690;23.322;2022-08-01T10:52:00;3.53;;;1.75;;
47762;SDS011;33526;42.690;23.322;2022-08-01T10:54:26;6.75;;;1.90;;
47762;SDS011;33526;42.690;23.322;2022-08-01T10:56:52;2.63;;;2.00;;
47762;SDS011;33526;42.690;23.322;2022-08-01T11:01:57;3.53;;;2.50;;
47762;SDS011;33526;42.690;23.322;2022-08-01T11:07:06;5.55;;;2.10;;
47762;SDS011;33526;42.690;23.322;2022-08-01T11:20:05;5.60;;;2.17;;
47762;SDS011;33526;42.690;23.322;2022-08-01T11:25:22;4.53;;;2.20;;
47762;SDS011;33526;42.690;23.322;2022-08-01T11:27:48;4.18;;;2.50;;
47762;SDS011;33526;42.690;23.322;2022-08-01T11:35:19;2.40;;;1.95;;
47762;SDS011;33526;42.690;23.322;2022-08-01T11:37:54;4.45;;;2.10;;
47762;SDS011;33526;42.690;23.322;2022-08-01T11:45:51;4.38;;;2.10;;
47762;SDS011;33526;42.690;23.322;2022-08-01T11:48:29;3.35;;;2.03;;
47762;SDS011;33526;42.690;23.322;2022-08-01T11:50:55;2.45;;;1.90;;
47762;SDS011;33526;42.690;23.322;2022-08-01T11:53:21;3.13;;;2.05;;
47762;SDS011;33526;42.690;23.322;2022-08-01T11:55:48;3.05;;;2.25;;
47762;SDS011;33526;42.690;23.322;2022-08-01T11:58:15;2.60;;;2.03;;
47762;SDS011;33526;42.690;23.322;2022-08-01T12:00:55;5.43;;;2.13;;
47762;SDS011;33526;42.690;23.322;2022-08-01T12:03:24;4.35;;;2.28;;
47762;SDS011;33526;42.690;23.322;2022-08-01T12:05:54;2.65;;;2.28;;
47762;SDS011;33526;42.690;23.322;2022-08-01T12:08:28;4.20;;;2.30;;
47762;SDS011;33526;42.690;23.322;2022-08-01T12:10:57;4.72;;;2.72;;
47762;SDS011;33526;42.690;23.322;2022-08-01T12:13:23;3.13;;;2.33;;
47762;SDS011;33526;42.690;23.322;2022-08-01T12:15:49;4.18;;;2.88;;
47762;SDS011;33526;42.690;23.322;2022-08-01T12:18:15;2.55;;;1.98;;
47762;SDS011;33526;42.690;23.322;2022-08-01T12:20:42;2.95;;;2.35;;
47762;SDS011;33526;42.690;23.322;2022-08-01T12:23:11;4.63;;;2.15;;
47762;SDS011;33526;42.690;23.322;2022-08-01T12:25:38;5.85;;;2.10;;
47762;SDS011;33526;42.690;23.322;2022-08-01T12:28:05;3.15;;;1.92;;
47762;SDS011;33526;42.690;23.322;2022-08-01T12:30:35;2.72;;;2.10;;
47762;SDS011;33526;42.690;23.322;2022-08-01T12:33:03;6.65;;;2.60;;
47762;SDS011;33526;42.690;23.322;2022-08-01T12:35:30;3.03;;;2.10;;
47762;SDS011;33526;42.690;23.322;2022-08-01T12:38:00;2.63;;;2.30;;
47762;SDS011;33526;42.690;23.322;2022-08-01T12:40:29;2.97;;;2.30;;
47762;SDS011;33526;42.690;23.322;2022-08-01T12:42:59;4.45;;;2.25;;
47762;SDS011;33526;42.690;23.322;2022-08-01T12:48:07;5.28;;;2.08;;
47762;SDS011;33526;42.690;23.322;2022-08-01T12:50:38;2.47;;;2.28;;
47762;SDS011;33526;42.690;23.322;2022-08-01T12:53:07;7.55;;;2.67;;
47762;SDS011;33526;42.690;23.322;2022-08-01T12:55:40;7.53;;;4.38;;
47762;SDS011;33526;42.690;23.322;2022-08-01T12:58:10;5.28;;;2.80;;
47762;SDS011;33526;42.690;23.322;2022-08-01T13:00:37;6.35;;;2.40;;
47762;SDS011;33526;42.690;23.322;2022-08-01T13:05:41;4.03;;;2.25;;
47762;SDS011;33526;42.690;23.322;2022-08-01T13:08:11;2.42;;;2.20;;
47762;SDS011;33526;42.690;23.322;2022-08-01T13:10:42;4.75;;;2.45;;
47762;SDS011;33526;42.690;23.322;2022-08-01T13:13:09;4.57;;;2.28;;
47762;SDS011;33526;42.690;23.322;2022-08-01T13:15:36;3.65;;;1.98;;
47762;SDS011;33526;42.690;23.322;2022-08-01T13:18:23;5.22;;;2.10;;
47762;SDS011;33526;42.690;23.322;2022-08-01T13:23:34;3.60;;;1.80;;
47762;SDS011;33526;42.690;23.322;2022-08-01T13:25:59;2.83;;;1.98;;
47762;SDS011;33526;42.690;23.322;2022-08-01T13:28:25;3.30;;;1.80;;
47762;SDS011;33526;42.690;23.322;2022-08-01T13:30:56;2.85;;;2.20;;
47762;SDS011;33526;42.690;23.322;2022-08-01T13:33:26;2.75;;;2.10;;
47762;SDS011;33526;42.690;23.322;2022-08-01T13:35:54;4.72;;;1.92;;
47762;SDS011;33526;42.690;23.322;2022-08-01T13:38:21;4.55;;;1.80;;
47762;SDS011;33526;42.690;23.322;2022-08-01T13:41:06;4.10;;;2.10;;
47762;SDS011;33526;42.690;23.322;2022-08-01T13:43:32;4.45;;;2.15;;
47762;SDS011;33526;42.690;23.322;2022-08-01T13:45:58;1.70;;;1.60;;
47762;SDS011;33526;42.690;23.322;2022-08-01T13:48:24;4.90;;;2.20;;
47762;SDS011;33526;42.690;23.322;2022-08-01T13:50:51;1.92;;;1.80;;
47762;SDS011;33526;42.690;23.322;2022-08-01T13:53:16;5.88;;;2.10;;
47762;SDS011;33526;42.690;23.322;2022-08-01T13:55:43;2.60;;;1.80;;
47762;SDS011;33526;42.690;23.322;2022-08-01T13:58:09;2.78;;;1.77;;
47762;SDS011;33526;42.690;23.322;2022-08-01T14:00:34;2.10;;;1.92;;
47762;SDS011;33526;42.690;23.322;2022-08-01T14:03:00;2.10;;;1.90;;
47762;SDS011;33526;42.690;23.322;2022-08-01T14:05:25;2.13;;;1.70;;
47762;SDS011;33526;42.690;23.322;2022-08-01T14:07:51;2.20;;;2.00;;
47762;SDS011;33526;42.690;23.322;2022-08-01T14:10:17;2.45;;;1.80;;
47762;SDS011;33526;42.690;23.322;2022-08-01T14:12:44;4.38;;;2.03;;
47762;SDS011;33526;42.690;23.322;2022-08-01T14:15:10;3.47;;;2.22;;
47762;SDS011;33526;42.690;23.322;2022-08-01T14:17:35;2.80;;;2.47;;
47762;SDS011;33526;42.690;23.322;2022-08-01T14:20:01;2.53;;;1.83;;
47762;SDS011;33526;42.690;23.322;2022-08-01T14:22:29;2.53;;;2.00;;
47762;SDS011;33526;42.690;23.322;2022-08-01T14:24:55;3.55;;;2.20;;
47762;SDS011;33526;42.690;23.322;2022-08-01T14:27:20;2.78;;;1.90;;
47762;SDS011;33526;42.690;23.322;2022-08-01T14:29:45;4.53;;;1.88;;
47762;SDS011;33526;42.690;23.322;2022-08-01T14:32:11;2.85;;;2.22;;
47762;SDS011;33526;42.690;23.322;2022-08-01T14:34:37;2.53;;;1.75;;
47762;SDS011;33526;42.690;23.322;2022-08-01T14:37:03;4.63;;;2.17;;
47762;SDS011;33526;42.690;23.322;2022-08-01T14:39:28;2.67;;;1.90;;
47762;SDS011;33526;42.690;23.322;2022-08-01T14:41:54;3.35;;;2.17;;
47762;SDS011;33526;42.690;23.322;2022-08-01T14:44:19;4.57;;;1.90;;
47762;SDS011;33526;42.690;23.322;2022-08-01T14:46:45;5.13;;;1.88;;
47762;SDS011;33526;42.690;23.322;2022-08-01T14:49:13;2.20;;;1.75;;
47762;SDS011;33526;42.690;23.322;2022-08-01T14:51:39;2.15;;;1.92;;
47762;SDS011;33526;42.690;23.322;2022-08-01T14:54:05;4.57;;;2.77;;
47762;SDS011;33526;42.690;23.322;2022-08-01T14:56:31;3.47;;;2.15;;
47762;SDS011;33526;42.690;23.322;2022-08-01T14:58:56;2.57;;;1.93;;
47762;SDS011;33526;42.690;23.322;2022-08-01T15:01:22;3.90;;;1.90;;
47762;SDS011;33526;42.690;23.322;2022-08-01T15:03:48;3.23;;;1.80;;
47762;SDS011;33526;42.690;23.322;2022-08-01T15:06:15;6.90;;;1.75;;
47762;SDS011;33526;42.690;23.322;2022-08-01T15:08:40;1.80;;;1.70;;
47762;SDS011;33526;42.690;23.322;2022-08-01T15:11:06;3.17;;;1.93;;
47762;SDS011;33526;42.690;23.322;2022-08-01T15:13:32;2.35;;;1.83;;
47762;SDS011;33526;42.690;23.322;2022-08-01T15:15:58;2.03;;;1.87;;
47762;SDS011;33526;42.690;23.322;2022-08-01T15:18:23;4.83;;;2.10;;
47762;SDS011;33526;42.690;23.322;2022-08-01T15:20:49;4.10;;;1.80;;
47762;SDS011;33526;42.690;23.322;2022-08-01T15:23:14;2.37;;;1.70;;
47762;SDS011;33526;42.690;23.322;2022-08-01T15:25:40;3.22;;;1.50;;
47762;SDS011;33526;42.690;23.322;2022-08-01T15:28:05;3.43;;;1.60;;
47762;SDS011;33526;42.690;23.322;2022-08-01T15:30:31;2.70;;;1.43;;
47762;SDS011;33526;42.690;23.322;2022-08-01T15:32:57;1.77;;;1.50;;
47762;SDS011;33526;42.690;23.322;2022-08-01T15:35:23;2.05;;;1.80;;